createdAt,value
2023-05-21T00:00:39.911Z,13.58
2023-05-21T00:01:45.908Z,13.57
2023-05-21T00:02:48.132Z,13.55
2023-05-21T00:03:53.063Z,13.50
2023-05-21T00:04:55.217Z,13.49
2023-05-21T00:06:01.810Z,13.49
2023-05-21T00:07:04.432Z,13.48
2023-05-21T00:08:09.425Z,13.45
2023-05-21T00:09:13.233Z,13.45
2023-05-21T00:10:17.965Z,13.43
2023-05-21T00:11:20.292Z,13.41
2023-05-21T00:12:25.013Z,13.39
2023-05-21T00:13:29.811Z,13.38
2023-05-21T00:14:34.562Z,13.38
2023-05-21T00:15:36.845Z,13.37
2023-05-21T00:16:41.847Z,13.37
2023-05-21T00:17:44.295Z,13.37
2023-05-21T00:18:49.926Z,13.34
2023-05-21T00:19:52.249Z,13.30
2023-05-21T00:20:58.008Z,13.29
2023-05-21T00:22:02.497Z,13.26
2023-05-21T00:23:07.928Z,13.23
2023-05-21T00:24:10.114Z,13.21
2023-05-21T00:25:15.178Z,13.19
2023-05-21T00:26:17.280Z,13.15
2023-05-21T00:27:22.006Z,13.15
2023-05-21T00:28:24.085Z,13.13
2023-05-21T00:29:31.579Z,13.12
2023-05-21T00:30:33.742Z,13.10
2023-05-21T00:31:38.520Z,13.10
2023-05-21T00:32:40.686Z,13.08
2023-05-21T00:33:45.440Z,13.06
2023-05-21T00:34:48.433Z,13.04
2023-05-21T00:35:53.148Z,13.02
2023-05-21T00:36:56.054Z,13.00
2023-05-21T00:38:01.761Z,12.99
2023-05-21T00:39:04.863Z,13.00
2023-05-21T00:40:11.810Z,12.99
2023-05-21T00:41:14.196Z,13.01
2023-05-21T00:42:19.377Z,13.02
2023-05-21T00:43:26.307Z,13.01
2023-05-21T00:44:34.556Z,13.02
2023-05-21T00:45:37.554Z,13.01
2023-05-21T00:46:44.319Z,13.01
2023-05-21T00:47:48.659Z,13.00
2023-05-21T00:48:54.003Z,13.02
2023-05-21T00:49:56.303Z,12.96
2023-05-21T00:51:01.031Z,12.94
2023-05-21T00:52:03.267Z,12.92
2023-05-21T00:53:09.761Z,12.91
2023-05-21T00:54:12.291Z,12.89
2023-05-21T00:55:17.370Z,12.88
2023-05-21T00:56:20.462Z,12.88
2023-05-21T00:57:28.289Z,12.84
2023-05-21T00:58:31.259Z,12.82
2023-05-21T00:59:38.579Z,12.81
2023-05-21T01:00:40.877Z,12.77
2023-05-21T01:01:46.537Z,12.76
2023-05-21T01:02:50.088Z,12.73
2023-05-21T01:03:57.924Z,12.72
2023-05-21T01:05:00.612Z,12.70
2023-05-21T01:06:05.395Z,12.69
2023-05-21T01:07:09.750Z,12.67
2023-05-21T01:08:15.188Z,12.67
2023-05-21T01:09:18.115Z,12.66
2023-05-21T01:10:22.906Z,12.64
2023-05-21T01:11:34.008Z,12.64
2023-05-21T01:12:45.284Z,12.65
2023-05-21T01:13:48.704Z,12.64
2023-05-21T01:14:57.821Z,12.64
2023-05-21T01:16:01.509Z,12.62
2023-05-21T01:17:11.965Z,12.58
2023-05-21T01:18:14.657Z,12.57
2023-05-21T01:19:22.475Z,12.56
2023-05-21T01:20:25.103Z,12.58
2023-05-21T01:21:32.346Z,12.53
2023-05-21T01:22:36.299Z,12.52
2023-05-21T01:23:43.731Z,12.52
2023-05-21T01:24:48.417Z,12.50
2023-05-21T01:25:53.145Z,12.47
2023-05-21T01:26:55.511Z,12.45
2023-05-21T01:28:00.224Z,12.45
2023-05-21T01:29:02.672Z,12.42
2023-05-21T01:30:08.641Z,12.39
2023-05-21T01:31:23.139Z,12.37
2023-05-21T01:32:35.749Z,12.38
2023-05-21T01:33:45.721Z,12.38
2023-05-21T01:34:59.346Z,12.44
2023-05-21T01:36:06.271Z,12.42
2023-05-21T01:37:19.885Z,12.42
2023-05-21T01:38:27.625Z,12.41
2023-05-21T01:39:38.724Z,12.41
2023-05-21T01:40:45.914Z,12.40
2023-05-21T01:41:52.586Z,12.37
2023-05-21T01:42:54.898Z,12.35
2023-05-21T01:44:00.232Z,12.35
2023-05-21T01:45:06.438Z,12.32
2023-05-21T01:46:13.722Z,12.29
2023-05-21T01:47:18.209Z,12.27
2023-05-21T01:48:23.144Z,12.27
2023-05-21T01:49:25.714Z,12.26
2023-05-21T01:50:32.077Z,12.26
2023-05-21T01:51:35.012Z,12.24
2023-05-21T01:52:40.150Z,12.25
2023-05-21T01:53:44.913Z,12.25
2023-05-21T01:54:51.443Z,12.24
2023-05-21T01:55:56.348Z,12.25
2023-05-21T01:56:58.465Z,12.27
2023-05-21T01:58:03.529Z,12.27
2023-05-21T01:59:06.091Z,12.27
2023-05-21T02:00:12.518Z,12.26
2023-05-21T02:01:14.630Z,12.25
2023-05-21T02:02:19.318Z,12.25
2023-05-21T02:03:22.126Z,12.23
2023-05-21T02:04:26.836Z,12.23
2023-05-21T02:05:29.311Z,12.25
2023-05-21T02:06:36.120Z,12.29
2023-05-21T02:07:38.894Z,12.29
2023-05-21T02:08:45.772Z,12.26
2023-05-21T02:09:50.602Z,12.25
2023-05-21T02:10:55.265Z,12.23
2023-05-21T02:11:58.449Z,12.22
2023-05-21T02:13:03.573Z,12.22
2023-05-21T02:14:05.715Z,12.19
2023-05-21T02:15:10.967Z,12.18
2023-05-21T02:16:15.058Z,12.16
2023-05-21T02:17:20.051Z,12.14
2023-05-21T02:18:22.552Z,12.10
2023-05-21T02:19:27.466Z,12.08
2023-05-21T02:20:30.443Z,12.05
2023-05-21T02:21:35.271Z,12.04
2023-05-21T02:22:37.856Z,12.03
2023-05-21T02:23:42.789Z,12.02
2023-05-21T02:24:45.642Z,11.99
2023-05-21T02:25:53.135Z,11.98
2023-05-21T02:26:55.241Z,11.98
2023-05-21T02:27:59.972Z,11.97
2023-05-21T02:29:02.077Z,11.94
2023-05-21T02:30:08.973Z,11.93
2023-05-21T02:31:11.801Z,11.90
2023-05-21T02:32:17.130Z,11.89
2023-05-21T02:33:20.445Z,11.88
2023-05-21T02:34:26.166Z,11.86
2023-05-21T02:35:28.463Z,11.84
2023-05-21T02:36:33.494Z,11.88
2023-05-21T02:37:36.669Z,11.90
2023-05-21T02:38:43.895Z,11.90
2023-05-21T02:39:46.147Z,11.91
2023-05-21T02:40:53.860Z,11.92
2023-05-21T02:41:56.079Z,11.92
2023-05-21T02:43:00.783Z,11.92
2023-05-21T02:44:02.882Z,11.94
2023-05-21T02:45:08.464Z,11.92
2023-05-21T02:46:10.793Z,11.91
2023-05-21T02:47:15.546Z,11.90
2023-05-21T02:48:17.660Z,11.92
2023-05-21T02:49:22.368Z,11.92
2023-05-21T02:50:24.527Z,11.90
2023-05-21T02:51:29.210Z,11.87
2023-05-21T02:52:31.488Z,11.88
2023-05-21T02:53:36.189Z,11.84
2023-05-21T02:54:38.258Z,11.82
2023-05-21T02:55:42.992Z,11.82
2023-05-21T02:56:47.661Z,11.82
2023-05-21T02:57:52.412Z,11.80
2023-05-21T02:58:54.759Z,11.78
2023-05-21T02:59:59.451Z,11.75
2023-05-21T03:01:01.836Z,11.74
2023-05-21T03:02:06.585Z,11.73
2023-05-21T03:03:08.867Z,11.73
2023-05-21T03:04:13.599Z,11.71
2023-05-21T03:05:15.741Z,11.73
2023-05-21T03:06:20.471Z,11.70
2023-05-21T03:07:22.677Z,11.69
2023-05-21T03:08:27.699Z,11.66
2023-05-21T03:09:29.751Z,11.63
2023-05-21T03:10:34.482Z,11.64
2023-05-21T03:11:38.946Z,11.63
2023-05-21T03:12:46.196Z,11.64
2023-05-21T03:13:48.391Z,11.60
2023-05-21T03:14:54.126Z,11.57
2023-05-21T03:15:56.657Z,11.54
2023-05-21T03:17:01.400Z,11.51
2023-05-21T03:18:06.396Z,11.49
2023-05-21T03:19:08.711Z,11.46
2023-05-21T03:20:17.315Z,11.47
2023-05-21T03:21:22.833Z,11.45
2023-05-21T03:22:27.512Z,11.45
2023-05-21T03:23:29.602Z,11.43
2023-05-21T03:24:34.472Z,11.42
2023-05-21T03:25:37.238Z,11.41
2023-05-21T03:26:42.051Z,11.40
2023-05-21T03:27:46.698Z,11.40
2023-05-21T03:28:51.357Z,11.39
2023-05-21T03:29:55.274Z,11.39
2023-05-21T03:31:00.139Z,11.37
2023-05-21T03:32:02.756Z,11.36
2023-05-21T03:33:07.860Z,11.35
2023-05-21T03:34:10.019Z,11.34
2023-05-21T03:35:14.740Z,11.32
2023-05-21T03:36:19.767Z,11.31
2023-05-21T03:37:21.921Z,11.29
2023-05-21T03:38:26.561Z,11.30
2023-05-21T03:39:28.731Z,11.28
2023-05-21T03:40:33.402Z,11.27
2023-05-21T03:41:35.558Z,11.26
2023-05-21T03:42:40.244Z,11.26
2023-05-21T03:43:44.945Z,11.25
2023-05-21T03:44:49.842Z,11.29
2023-05-21T03:45:52.223Z,11.28
2023-05-21T03:46:56.942Z,11.26
2023-05-21T03:47:59.192Z,11.28
2023-05-21T03:49:03.979Z,11.28
2023-05-21T03:50:07.867Z,11.28
2023-05-21T03:51:13.455Z,11.29
2023-05-21T03:52:15.689Z,11.33
2023-05-21T03:53:20.604Z,11.36
2023-05-21T03:54:22.682Z,11.35
2023-05-21T03:55:27.358Z,11.35
2023-05-21T03:56:29.532Z,11.35
2023-05-21T03:57:34.230Z,11.37
2023-05-21T03:58:36.983Z,11.38
2023-05-21T03:59:44.244Z,11.40
2023-05-21T04:00:46.330Z,11.45
2023-05-21T04:01:52.367Z,11.49
2023-05-21T04:02:54.745Z,11.53
2023-05-21T04:03:59.593Z,11.52
2023-05-21T04:05:01.808Z,11.62
2023-05-21T04:06:07.089Z,11.64
2023-05-21T04:07:14.678Z,11.64
2023-05-21T04:08:19.480Z,11.63
2023-05-21T04:09:21.717Z,11.67
2023-05-21T04:10:27.162Z,11.65
2023-05-21T04:11:29.231Z,11.68
2023-05-21T04:12:33.947Z,11.67
2023-05-21T04:13:36.492Z,11.68
2023-05-21T04:14:41.236Z,11.69
2023-05-21T04:15:46.981Z,11.71
2023-05-21T04:16:51.980Z,11.72
2023-05-21T04:17:54.889Z,11.74
2023-05-21T04:18:59.829Z,11.76
2023-05-21T04:20:02.120Z,11.80
2023-05-21T04:21:07.738Z,11.82
2023-05-21T04:22:10.934Z,11.88
2023-05-21T04:23:15.617Z,11.90
2023-05-21T04:24:17.827Z,11.95
2023-05-21T04:25:23.477Z,11.98
2023-05-21T04:26:25.572Z,12.02
2023-05-21T04:27:30.279Z,12.08
2023-05-21T04:28:33.419Z,12.12
2023-05-21T04:29:42.920Z,12.15
2023-05-21T04:30:48.032Z,12.16
2023-05-21T04:31:52.920Z,12.17
2023-05-21T04:32:55.596Z,12.21
2023-05-21T04:34:00.312Z,12.25
2023-05-21T04:35:02.459Z,12.29
2023-05-21T04:36:10.041Z,12.31
2023-05-21T04:37:12.451Z,12.35
2023-05-21T04:38:19.962Z,12.37
2023-05-21T04:39:22.145Z,12.37
2023-05-21T04:40:27.188Z,12.39
2023-05-21T04:41:29.370Z,12.43
2023-05-21T04:42:34.235Z,12.46
2023-05-21T04:43:37.034Z,12.49
2023-05-21T04:44:44.682Z,12.54
2023-05-21T04:45:49.808Z,12.59
2023-05-21T04:46:55.020Z,12.60
2023-05-21T04:48:00.817Z,12.63
2023-05-21T04:49:05.832Z,12.68
2023-05-21T04:50:09.166Z,12.70
2023-05-21T04:51:15.237Z,12.72
2023-05-21T04:52:17.696Z,12.75
2023-05-21T04:53:22.410Z,12.77
2023-05-21T04:54:24.750Z,12.79
2023-05-21T04:55:29.896Z,12.82
2023-05-21T04:56:32.107Z,12.84
2023-05-21T04:57:36.874Z,12.88
2023-05-21T04:58:40.793Z,12.93
2023-05-21T04:59:45.610Z,12.96
2023-05-21T05:00:52.120Z,12.99
2023-05-21T05:01:56.912Z,13.01
2023-05-21T05:02:59.152Z,13.07
2023-05-21T05:04:04.529Z,13.12
2023-05-21T05:05:07.182Z,13.15
2023-05-21T05:06:11.858Z,13.17
2023-05-21T05:07:13.998Z,13.20
2023-05-21T05:08:19.024Z,13.24
2023-05-21T05:09:21.759Z,13.25
2023-05-21T05:10:26.486Z,13.28
2023-05-21T05:11:28.617Z,13.28
2023-05-21T05:12:33.269Z,13.34
2023-05-21T05:13:35.536Z,13.39
2023-05-21T05:14:40.201Z,13.45
2023-05-21T05:15:45.295Z,13.46
2023-05-21T05:16:50.969Z,13.49
2023-05-21T05:17:56.803Z,13.51
2023-05-21T05:18:59.032Z,13.56
2023-05-21T05:20:04.018Z,13.60
2023-05-21T05:21:06.340Z,13.68
2023-05-21T05:22:13.349Z,13.75
2023-05-21T05:23:15.782Z,13.80
2023-05-21T05:24:20.462Z,13.84
2023-05-21T05:25:22.539Z,13.89
2023-05-21T05:26:27.266Z,13.94
2023-05-21T05:27:29.350Z,13.98
2023-05-21T05:28:34.038Z,14.04
2023-05-21T05:29:36.062Z,14.09
2023-05-21T05:30:40.769Z,14.14
2023-05-21T05:31:42.960Z,14.18
2023-05-21T05:32:50.272Z,14.24
2023-05-21T05:33:52.392Z,14.29
2023-05-21T05:34:57.159Z,14.35
2023-05-21T05:35:59.248Z,14.41
2023-05-21T05:37:04.486Z,14.47
2023-05-21T05:38:09.203Z,14.51
2023-05-21T05:39:13.994Z,14.53
2023-05-21T05:40:16.351Z,14.53
2023-05-21T05:41:21.213Z,14.58
2023-05-21T05:42:23.354Z,14.64
2023-05-21T05:43:28.377Z,14.67
2023-05-21T05:44:30.505Z,14.73
2023-05-21T05:45:36.455Z,14.84
2023-05-21T05:46:39.015Z,14.87
2023-05-21T05:47:43.993Z,14.91
2023-05-21T05:48:48.762Z,14.96
2023-05-21T05:49:53.515Z,15.03
2023-05-21T05:50:56.249Z,15.09
2023-05-21T05:52:01.351Z,15.15
2023-05-21T05:53:03.526Z,15.21
2023-05-21T05:54:08.194Z,15.27
2023-05-21T05:55:12.153Z,15.34
2023-05-21T05:56:17.338Z,15.43
2023-05-21T05:57:19.514Z,15.44
2023-05-21T05:58:24.209Z,15.49
2023-05-21T05:59:26.344Z,15.55
2023-05-21T06:00:31.080Z,15.59
2023-05-21T06:01:33.210Z,15.59
2023-05-21T06:02:37.978Z,15.63
2023-05-21T06:03:40.199Z,15.64
2023-05-21T06:04:47.706Z,15.70
2023-05-21T06:05:50.282Z,15.70
2023-05-21T06:06:55.125Z,15.77
2023-05-21T06:07:57.208Z,15.83
2023-05-21T06:09:01.874Z,15.87
2023-05-21T06:10:05.679Z,15.92
2023-05-21T06:11:11.185Z,15.97
2023-05-21T06:12:16.136Z,16.06
2023-05-21T06:13:20.823Z,16.13
2023-05-21T06:14:22.962Z,16.17
2023-05-21T06:15:27.637Z,16.15
2023-05-21T06:16:31.692Z,16.25
2023-05-21T06:17:36.639Z,16.29
2023-05-21T06:18:39.110Z,16.30
2023-05-21T06:19:45.420Z,16.39
2023-05-21T06:20:50.136Z,16.38
2023-05-21T06:21:54.857Z,16.41
2023-05-21T06:22:56.957Z,16.48
2023-05-21T06:24:01.657Z,16.49
2023-05-21T06:25:04.103Z,16.52
2023-05-21T06:26:09.255Z,16.54
2023-05-21T06:27:11.381Z,16.59
2023-05-21T06:28:16.066Z,16.66
2023-05-21T06:29:18.422Z,16.68
2023-05-21T06:30:23.263Z,16.72
2023-05-21T06:31:25.358Z,16.73
2023-05-21T06:32:30.116Z,16.76
2023-05-21T06:33:32.311Z,16.80
2023-05-21T06:34:37.141Z,16.84
2023-05-21T06:35:40.448Z,16.83
2023-05-21T06:36:47.910Z,16.89
2023-05-21T06:37:50.119Z,16.87
2023-05-21T06:38:54.815Z,16.91
2023-05-21T06:39:56.899Z,16.90
2023-05-21T06:41:01.772Z,16.93
2023-05-21T06:42:04.077Z,16.91
2023-05-21T06:43:08.909Z,16.93
2023-05-21T06:44:11.282Z,16.95
2023-05-21T06:45:15.973Z,17.00
2023-05-21T06:46:18.192Z,17.04
2023-05-21T06:47:23.042Z,17.05
2023-05-21T06:48:25.207Z,17.11
2023-05-21T06:49:29.861Z,17.16
2023-05-21T06:50:32.249Z,17.19
2023-05-21T06:51:37.040Z,17.22
2023-05-21T06:52:41.744Z,17.19
2023-05-21T06:53:46.456Z,17.26
2023-05-21T06:54:48.572Z,17.35
2023-05-21T06:55:54.381Z,17.32
2023-05-21T06:56:56.472Z,17.39
2023-05-21T06:58:01.573Z,17.41
2023-05-21T06:59:03.765Z,17.40
2023-05-21T07:00:09.738Z,17.37
2023-05-21T07:01:12.087Z,17.39
2023-05-21T07:02:17.148Z,17.38
2023-05-21T07:03:19.425Z,17.45
2023-05-21T07:04:24.250Z,17.52
2023-05-21T07:05:26.392Z,17.58
2023-05-21T07:06:31.093Z,17.64
2023-05-21T07:07:35.009Z,17.71
2023-05-21T07:08:42.282Z,17.78
2023-05-21T07:09:44.381Z,17.87
2023-05-21T07:10:49.151Z,17.98
2023-05-21T07:11:53.181Z,18.05
2023-05-21T07:12:57.853Z,18.03
2023-05-21T07:14:01.026Z,18.01
2023-05-21T07:15:05.841Z,18.08
2023-05-21T07:16:08.342Z,18.19
2023-05-21T07:17:13.136Z,18.22
2023-05-21T07:18:18.002Z,18.27
2023-05-21T07:19:20.142Z,18.24
2023-05-21T07:20:24.848Z,18.24
2023-05-21T07:21:26.958Z,18.39
2023-05-21T07:22:31.711Z,18.46
2023-05-21T07:23:33.857Z,18.39
2023-05-21T07:24:41.216Z,18.45
2023-05-21T07:25:43.377Z,18.58
2023-05-21T07:26:48.051Z,18.71
2023-05-21T07:27:50.285Z,18.87
2023-05-21T07:28:55.102Z,18.96
2023-05-21T07:29:57.271Z,18.99
2023-05-21T07:31:02.037Z,19.12
2023-05-21T07:32:04.598Z,19.21
2023-05-21T07:33:09.442Z,19.28
2023-05-21T07:34:14.196Z,19.40
2023-05-21T07:35:16.629Z,19.51
2023-05-21T07:36:21.333Z,19.12
2023-05-21T07:37:23.499Z,19.45
2023-05-21T07:38:28.307Z,19.61
2023-05-21T07:39:30.443Z,19.74
2023-05-21T07:40:37.904Z,19.86
2023-05-21T07:41:40.079Z,20.02
2023-05-21T07:42:44.726Z,20.17
2023-05-21T07:43:49.449Z,20.18
2023-05-21T07:44:51.730Z,20.19
2023-05-21T07:45:56.413Z,20.28
2023-05-21T07:46:58.752Z,20.26
2023-05-21T07:48:03.526Z,20.45
2023-05-21T07:49:05.640Z,20.58
2023-05-21T07:50:11.000Z,20.65
2023-05-21T07:51:15.874Z,20.70
2023-05-21T07:52:20.782Z,20.75
2023-05-21T07:53:22.994Z,20.89
2023-05-21T07:54:27.672Z,21.05
2023-05-21T07:55:29.759Z,21.00
2023-05-21T07:56:37.279Z,21.16
2023-05-21T07:57:40.610Z,21.19
2023-05-21T07:58:46.130Z,21.35
2023-05-21T07:59:48.281Z,21.54
2023-05-21T08:00:53.380Z,21.51
2023-05-21T08:01:55.757Z,21.55
2023-05-21T08:03:00.568Z,21.71
2023-05-21T08:04:06.232Z,21.68
2023-05-21T08:05:12.361Z,21.82
2023-05-21T08:06:17.093Z,21.81
2023-05-21T08:07:20.056Z,21.90
2023-05-21T08:08:24.896Z,21.93
2023-05-21T08:09:27.065Z,21.97
2023-05-21T08:10:31.987Z,21.98
2023-05-21T08:11:36.744Z,22.02
2023-05-21T08:12:41.486Z,21.99
2023-05-21T08:13:43.621Z,22.09
2023-05-21T08:14:48.552Z,21.85
2023-05-21T08:15:53.148Z,21.84
2023-05-21T08:16:58.704Z,21.82
2023-05-21T08:18:00.842Z,21.92
2023-05-21T08:19:05.789Z,21.85
2023-05-21T08:20:09.161Z,21.86
2023-05-21T08:21:13.977Z,21.93
2023-05-21T08:22:16.125Z,21.87
2023-05-21T08:23:20.969Z,21.88
2023-05-21T08:24:23.766Z,21.79
2023-05-21T08:25:28.452Z,21.83
2023-05-21T08:26:31.282Z,21.78
2023-05-21T08:27:38.566Z,21.85
2023-05-21T08:28:40.701Z,21.95
2023-05-21T08:29:46.157Z,22.01
2023-05-21T08:30:48.298Z,22.04
2023-05-21T08:31:53.095Z,21.91
2023-05-21T08:32:55.608Z,22.03
2023-05-21T08:34:00.387Z,22.07
2023-05-21T08:35:02.546Z,22.04
2023-05-21T08:36:08.395Z,22.07
2023-05-21T08:37:10.612Z,22.05
2023-05-21T08:38:17.059Z,21.83
2023-05-21T08:39:19.168Z,21.92
2023-05-21T08:40:24.060Z,21.87
2023-05-21T08:41:27.223Z,21.78
2023-05-21T08:42:46.430Z,21.84
2023-05-21T08:43:58.689Z,21.80
2023-05-21T08:45:01.270Z,21.83
2023-05-21T08:46:07.482Z,21.71
2023-05-21T08:47:11.351Z,21.44
2023-05-21T08:48:19.720Z,21.54
2023-05-21T08:49:27.458Z,21.77
2023-05-21T08:50:34.307Z,21.90
2023-05-21T08:51:36.561Z,21.68
2023-05-21T08:52:41.433Z,21.83
2023-05-21T08:53:47.240Z,21.93
2023-05-21T08:54:51.418Z,21.88
2023-05-21T08:55:57.677Z,21.84
2023-05-21T08:57:02.250Z,21.80
2023-05-21T08:58:07.813Z,22.07
2023-05-21T08:59:13.226Z,22.21
2023-05-21T09:00:20.946Z,22.27
2023-05-21T09:01:25.630Z,22.31
2023-05-21T09:02:32.748Z,22.33
2023-05-21T09:03:39.556Z,22.10
2023-05-21T09:04:49.444Z,22.23
2023-05-21T09:05:55.355Z,22.32
2023-05-21T09:06:58.258Z,22.39
2023-05-21T09:08:09.526Z,22.51
2023-05-21T09:09:18.108Z,22.59
2023-05-21T09:10:29.033Z,22.48
2023-05-21T09:11:31.601Z,22.56
2023-05-21T09:12:36.429Z,22.72
2023-05-21T09:13:39.200Z,22.91
2023-05-21T09:14:47.003Z,22.92
2023-05-21T09:15:49.428Z,23.12
2023-05-21T09:16:54.260Z,23.19
2023-05-21T09:17:56.877Z,23.36
2023-05-21T09:19:04.636Z,23.52
2023-05-21T09:20:12.584Z,23.43
2023-05-21T09:21:27.573Z,23.74
2023-05-21T09:22:29.761Z,23.76
2023-05-21T09:23:35.871Z,23.71
2023-05-21T09:24:38.031Z,23.82
2023-05-21T09:25:42.768Z,23.84
2023-05-21T09:26:44.949Z,24.02
2023-05-21T09:27:49.649Z,24.16
2023-05-21T09:28:52.473Z,24.28
2023-05-21T09:30:00.357Z,24.28
2023-05-21T09:31:04.032Z,24.28
2023-05-21T09:32:13.181Z,24.62
2023-05-21T09:33:25.289Z,24.70
2023-05-21T09:34:30.912Z,24.95
2023-05-21T09:35:38.269Z,25.15
2023-05-21T09:36:40.393Z,25.25
2023-05-21T09:37:46.330Z,25.41
2023-05-21T09:38:48.783Z,25.59
2023-05-21T09:39:53.538Z,25.89
2023-05-21T09:40:59.256Z,26.14
2023-05-21T09:42:01.468Z,26.35
2023-05-21T09:43:06.239Z,26.49
2023-05-21T09:44:08.567Z,26.63
2023-05-21T09:45:20.294Z,26.68
2023-05-21T09:46:26.572Z,26.73
2023-05-21T09:47:31.274Z,26.70
2023-05-21T09:48:34.898Z,26.57
2023-05-21T09:49:40.941Z,26.69
2023-05-21T09:50:43.063Z,26.31
2023-05-21T09:51:48.004Z,26.51
2023-05-21T09:52:53.162Z,26.41
2023-05-21T09:54:00.108Z,26.39
2023-05-21T09:55:03.527Z,26.25
2023-05-21T09:56:09.326Z,26.43
2023-05-21T09:57:14.111Z,26.27
2023-05-21T09:58:18.933Z,26.39
2023-05-21T09:59:21.511Z,26.49
2023-05-21T10:00:31.586Z,26.50
2023-05-21T10:01:37.689Z,26.27
2023-05-21T10:02:44.506Z,26.41
2023-05-21T10:03:53.226Z,26.19
2023-05-21T10:04:57.352Z,26.32
2023-05-21T10:06:03.598Z,25.96
2023-05-21T10:07:05.964Z,25.96
2023-05-21T10:08:14.525Z,26.20
2023-05-21T10:09:19.581Z,26.34
2023-05-21T10:10:24.894Z,26.27
2023-05-21T10:11:30.938Z,26.30
2023-05-21T10:12:36.679Z,26.31
2023-05-21T10:13:47.465Z,26.40
2023-05-21T10:14:54.674Z,26.22
2023-05-21T10:16:05.610Z,26.14
2023-05-21T10:17:08.152Z,26.05
2023-05-21T10:18:14.269Z,26.10
2023-05-21T10:19:17.180Z,26.13
2023-05-21T10:20:22.889Z,26.12
2023-05-21T10:21:26.381Z,26.21
2023-05-21T10:22:32.098Z,26.29
2023-05-21T10:23:36.588Z,26.42
2023-05-21T10:24:43.046Z,26.22
2023-05-21T10:25:46.318Z,26.33
2023-05-21T10:26:51.793Z,26.46
2023-05-21T10:27:56.137Z,26.63
2023-05-21T10:29:00.996Z,26.62
2023-05-21T10:30:06.084Z,26.64
2023-05-21T10:31:14.254Z,26.79
2023-05-21T10:32:17.155Z,26.63
2023-05-21T10:33:25.949Z,26.75
2023-05-21T10:34:29.289Z,26.98
2023-05-21T10:35:35.400Z,27.04
2023-05-21T10:36:38.764Z,27.04
2023-05-21T10:37:46.540Z,27.13
2023-05-21T10:38:48.831Z,27.45
2023-05-21T10:39:53.732Z,27.67
2023-05-21T10:40:56.429Z,27.27
2023-05-21T10:42:11.351Z,27.44
2023-05-21T10:43:37.151Z,27.25
2023-05-21T10:44:56.584Z,27.70
2023-05-21T10:46:28.429Z,27.84
2023-05-21T10:48:05.495Z,28.17
2023-05-21T10:49:38.165Z,28.28
2023-05-21T10:51:13.229Z,28.61
2023-05-21T10:52:33.766Z,28.65
2023-05-21T10:53:48.450Z,28.86
2023-05-21T10:55:14.142Z,28.86
2023-05-21T10:56:23.446Z,29.26
2023-05-21T10:57:47.511Z,29.31
2023-05-21T10:59:08.300Z,29.37
2023-05-21T11:00:15.348Z,29.49
2023-05-21T11:01:23.381Z,29.52
2023-05-21T11:02:27.691Z,29.75
2023-05-21T11:03:36.669Z,29.77
2023-05-21T11:04:43.520Z,29.88
2023-05-21T11:05:55.400Z,29.89
2023-05-21T11:06:59.287Z,29.67
2023-05-21T11:08:04.561Z,29.84
2023-05-21T11:09:15.556Z,29.80
2023-05-21T11:10:37.985Z,29.83
2023-05-21T11:11:48.736Z,29.21
2023-05-21T11:13:07.623Z,29.57
2023-05-21T11:14:39.684Z,29.80
2023-05-21T11:16:08.096Z,29.85
2023-05-21T11:17:19.299Z,29.86
2023-05-21T11:18:21.394Z,29.65
2023-05-21T11:19:37.547Z,29.48
2023-05-21T11:20:42.607Z,29.13
2023-05-21T11:21:53.734Z,29.03
2023-05-21T11:22:58.482Z,28.94
2023-05-21T11:24:05.411Z,28.97
2023-05-21T11:25:12.707Z,28.96
2023-05-21T11:26:16.522Z,28.76
2023-05-21T11:27:36.204Z,28.97
2023-05-21T11:28:38.315Z,28.99
2023-05-21T11:29:44.970Z,29.08
2023-05-21T11:31:23.332Z,29.09
2023-05-21T11:32:31.802Z,29.05
2023-05-21T11:33:34.162Z,29.26
2023-05-21T11:34:46.550Z,29.36
2023-05-21T11:35:59.480Z,29.41
2023-05-21T11:37:30.539Z,29.54
2023-05-21T11:38:35.252Z,29.70
2023-05-21T11:39:40.486Z,29.50
2023-05-21T11:40:55.473Z,29.08
2023-05-21T11:42:00.940Z,29.36
2023-05-21T11:43:07.056Z,29.41
2023-05-21T11:44:09.291Z,29.32
2023-05-21T11:45:14.521Z,29.15
2023-05-21T11:46:17.177Z,29.07
2023-05-21T11:47:22.595Z,29.04
2023-05-21T11:48:32.384Z,29.15
2023-05-21T11:49:35.861Z,29.15
2023-05-21T11:50:42.484Z,29.06
2023-05-21T11:51:44.750Z,29.17
2023-05-21T11:52:49.560Z,29.25
2023-05-21T11:53:51.764Z,29.18
2023-05-21T11:54:58.061Z,29.23
2023-05-21T11:56:02.424Z,29.03
2023-05-21T11:57:10.097Z,28.95
2023-05-21T11:58:19.418Z,28.92
2023-05-21T11:59:21.721Z,28.91
2023-05-21T12:00:26.833Z,28.98
2023-05-21T12:01:31.323Z,29.04
2023-05-21T12:02:36.083Z,29.10
2023-05-21T12:03:43.558Z,28.88
2023-05-21T12:04:46.994Z,28.85
2023-05-21T12:05:52.653Z,29.05
2023-05-21T12:06:55.612Z,29.16
2023-05-21T12:08:00.258Z,29.13
2023-05-21T12:09:02.435Z,29.27
2023-05-21T12:10:08.125Z,29.19
2023-05-21T12:11:10.401Z,29.37
2023-05-21T12:12:16.964Z,29.51
2023-05-21T12:13:22.735Z,29.42
2023-05-21T12:14:24.955Z,29.55
2023-05-21T12:15:30.035Z,29.57
2023-05-21T12:16:32.989Z,29.73
2023-05-21T12:17:37.849Z,29.79
2023-05-21T12:18:42.823Z,29.68
2023-05-21T12:19:49.088Z,29.69
2023-05-21T12:20:54.883Z,29.71
2023-05-21T12:21:57.588Z,29.78
2023-05-21T12:23:02.431Z,29.72
2023-05-21T12:24:04.789Z,29.83
2023-05-21T12:25:10.917Z,30.04
2023-05-21T12:26:13.901Z,29.98
2023-05-21T12:27:18.845Z,29.99
2023-05-21T12:28:21.643Z,30.10
2023-05-21T12:29:26.614Z,30.24
2023-05-21T12:30:31.783Z,30.21
2023-05-21T12:31:34.045Z,30.29
2023-05-21T12:32:38.962Z,30.44
2023-05-21T12:33:44.971Z,30.60
2023-05-21T12:34:50.889Z,30.57
2023-05-21T12:35:53.057Z,30.81
2023-05-21T12:36:57.822Z,30.96
2023-05-21T12:38:04.835Z,31.15
2023-05-21T12:39:11.165Z,30.76
2023-05-21T12:40:16.654Z,31.19
2023-05-21T12:41:19.457Z,31.40
2023-05-21T12:42:30.214Z,31.62
2023-05-21T12:43:32.563Z,31.86
2023-05-21T12:44:37.365Z,32.12
2023-05-21T12:45:39.864Z,30.71
2023-05-21T12:46:44.647Z,31.27
2023-05-21T12:47:56.562Z,30.69
2023-05-21T12:49:01.521Z,30.86
2023-05-21T12:50:11.976Z,31.42
2023-05-21T12:51:14.208Z,31.51
2023-05-21T12:52:22.800Z,32.20
2023-05-21T12:53:24.869Z,32.61
2023-05-21T12:54:33.326Z,33.00
2023-05-21T12:55:36.299Z,33.62
2023-05-21T12:56:48.168Z,34.12
2023-05-21T12:57:52.037Z,34.35
2023-05-21T12:58:57.681Z,34.67
2023-05-21T13:00:01.195Z,34.63
2023-05-21T13:01:06.036Z,34.59
2023-05-21T13:02:08.217Z,34.92
2023-05-21T13:03:14.432Z,35.40
2023-05-21T13:04:19.754Z,35.47
2023-05-21T13:05:24.578Z,35.39
2023-05-21T13:06:26.727Z,35.11
2023-05-21T13:07:33.284Z,34.64
2023-05-21T13:08:36.057Z,34.78
2023-05-21T13:09:40.775Z,34.46
2023-05-21T13:10:45.753Z,34.68
2023-05-21T13:11:47.852Z,34.60
2023-05-21T13:12:52.627Z,34.93
2023-05-21T13:13:54.986Z,35.06
2023-05-21T13:15:01.447Z,35.09
2023-05-21T13:16:03.665Z,34.77
2023-05-21T13:17:08.606Z,35.18
2023-05-21T13:18:12.493Z,34.52
2023-05-21T13:19:17.655Z,35.00
2023-05-21T13:20:27.865Z,35.48
2023-05-21T13:21:29.992Z,35.70
2023-05-21T13:22:35.647Z,35.62
2023-05-21T13:23:37.806Z,36.03
2023-05-21T13:24:42.487Z,35.94
2023-05-21T13:25:44.744Z,36.36
2023-05-21T13:26:49.473Z,36.50
2023-05-21T13:27:53.282Z,36.77
2023-05-21T13:28:58.028Z,37.15
2023-05-21T13:30:00.259Z,37.74
2023-05-21T13:31:04.990Z,38.31
2023-05-21T13:32:10.239Z,39.10
2023-05-21T13:33:13.394Z,39.57
2023-05-21T13:34:18.280Z,40.01
2023-05-21T13:35:23.170Z,39.98
2023-05-21T13:36:27.956Z,39.90
2023-05-21T13:37:30.143Z,40.22
2023-05-21T13:38:34.909Z,40.26
2023-05-21T13:39:37.895Z,40.59
2023-05-21T13:40:42.952Z,40.69
2023-05-21T13:41:49.094Z,40.86
2023-05-21T13:42:51.458Z,40.41
2023-05-21T13:43:56.202Z,40.90
2023-05-21T13:45:01.383Z,41.25
2023-05-21T13:46:06.445Z,41.07
2023-05-21T13:47:10.538Z,41.11
2023-05-21T13:48:15.274Z,41.11
2023-05-21T13:49:17.554Z,40.83
2023-05-21T13:50:24.942Z,40.79
2023-05-21T13:52:35.819Z,40.82
2023-05-21T13:53:40.600Z,41.06
2023-05-21T13:54:46.260Z,41.13
2023-05-21T13:55:48.424Z,41.14
2023-05-21T13:56:53.115Z,41.12
2023-05-21T13:57:57.836Z,40.85
2023-05-21T13:59:00.088Z,40.82
2023-05-21T14:00:05.086Z,40.35
2023-05-21T14:01:07.526Z,40.27